PWSweather.com
Personal Weather Stations
Station Observations
SHAHALMS1
Eftra, Falkenberg, HA

EftraFalkenberg, HA

Lat: 56.85, Lon: 12.65

Elevation: 140

Station Type:

http://hem.passagen.se/risarp101

High Low Average
Temperature 68.2°F20.1°C 54.1°F12.3°C 62.1°F16.7°C
Dew Point 62.2°F16.8°C 49.0°F9.4°C 56.7°F13.7°C
Winds 7.0 mph 11.3 kmh Calm Calm 3.0 mph SW4.8 kmh SW
Wind Gusts 20.0 mph32.2 kmh -- 10.0 mph16.1 kmh
Humidity 91% 69% 83%
Pressure 29.62 in1003.0 mb 29.50 in999.0 mb -
Precipitation 0.68 in17.3 mm - -
Hour Temp Dew Point Humidity Winds Wind Gusts Pressure Precip Precip Rate Daily Precip Total
12:00 AM 66.0°F18.9°C 60.7°F15.9°C 83% 5.6 mph S9.0 kmh S 11.8 mph19.0 kmh 29.62 in1003.0 mb 0.00 in0.0 mm 0.00 in0.0 mm 0.00 in0.0 mm
12:15 AM 66.2°F19.0°C 60.5°F15.8°C 82% 5.8 mph S9.3 kmh S 13.6 mph21.9 kmh 29.59 in1002.0 mb 0.00 in0.0 mm 0.00 in0.0 mm 0.00 in0.0 mm
12:30 AM 66.2°F19.0°C 60.9°F16.1°C 83% 6.8 mph S10.9 kmh S 16.8 mph27.0 kmh 29.59 in1002.0 mb 0.00 in0.0 mm 0.00 in0.0 mm 0.00 in0.0 mm
12:45 AM 66.2°F19.0°C 60.9°F16.1°C 83% 6.5 mph S10.5 kmh S 17.2 mph27.7 kmh 29.59 in1002.0 mb 0.00 in0.0 mm 0.00 in0.0 mm 0.00 in0.0 mm
01:00 AM 66.2°F19.0°C 61.2°F16.2°C 84% 4.8 mph S7.7 kmh S 11.8 mph19.0 kmh 29.56 in1001.0 mb 0.00 in0.0 mm 0.00 in0.0 mm 0.00 in0.0 mm
01:15 AM 66.2°F19.0°C 61.2°F16.2°C 84% 6.0 mph S9.7 kmh S 15.7 mph25.3 kmh 29.56 in1001.0 mb 0.00 in0.0 mm 0.00 in0.0 mm 0.00 in0.0 mm
01:30 AM 66.2°F19.0°C 61.2°F16.2°C 84% 6.3 mph S10.1 kmh S 15.0 mph24.1 kmh 29.53 in1000.0 mb 0.00 in0.0 mm 0.00 in0.0 mm 0.00 in0.0 mm
01:45 AM 66.4°F19.1°C 61.7°F16.5°C 85% 6.0 mph SSW9.7 kmh SSW 15.4 mph24.8 kmh 29.56 in1001.0 mb 0.00 in0.0 mm 0.00 in0.0 mm 0.00 in0.0 mm
02:00 AM 66.4°F19.1°C 61.7°F16.5°C 85% 6.3 mph S10.1 kmh S 17.5 mph28.2 kmh 29.56 in1001.0 mb 0.00 in0.0 mm 0.00 in0.0 mm 0.00 in0.0 mm
02:15 AM 66.4°F19.1°C 61.7°F16.5°C 85% 7.0 mph S11.3 kmh S 17.2 mph27.7 kmh 29.53 in1000.0 mb 0.00 in0.0 mm 0.00 in0.0 mm 0.00 in0.0 mm
02:30 AM 66.4°F19.1°C 61.7°F16.5°C 85% 5.2 mph S8.4 kmh S 16.1 mph25.9 kmh 29.56 in1001.0 mb 0.00 in0.0 mm 0.00 in0.0 mm 0.00 in0.0 mm
02:45 AM 66.2°F19.0°C 61.6°F16.4°C 85% 4.8 mph S7.7 kmh S 12.2 mph19.6 kmh 29.56 in1001.0 mb 0.00 in0.0 mm 0.00 in0.0 mm 0.00 in0.0 mm
03:00 AM 66.0°F18.9°C 62.0°F16.7°C 87% 5.2 mph S8.4 kmh S 14.3 mph23.0 kmh 29.56 in1001.0 mb 0.00 in0.0 mm 0.00 in0.0 mm 0.00 in0.0 mm
03:15 AM 66.2°F19.0°C 61.9°F16.6°C 86% 4.4 mph S7.1 kmh S 9.3 mph15.0 kmh 29.53 in1000.0 mb 0.00 in0.0 mm 0.00 in0.0 mm 0.00 in0.0 mm
03:30 AM 65.7°F18.7°C 61.4°F16.3°C 86% 2.7 mph W4.3 kmh W 9.3 mph15.0 kmh 29.53 in1000.0 mb 0.00 in0.0 mm 0.00 in0.0 mm 0.00 in0.0 mm
03:45 AM 64.4°F18.0°C 59.5°F15.3°C 84% 3.8 mph WNW6.1 kmh WNW 10.0 mph16.1 kmh 29.53 in1000.0 mb 0.00 in0.0 mm 0.00 in0.0 mm 0.00 in0.0 mm
04:00 AM 63.5°F17.5°C 58.9°F14.9°C 85% 1.9 mph WNW3.1 kmh WNW 6.4 mph10.3 kmh 29.50 in999.0 mb 0.06 in1.5 mm 0.08 in2.0 mm 0.06 in1.5 mm
04:15 AM 63.1°F17.3°C 59.2°F15.1°C 87% 0.4 mph W0.6 kmh W 3.2 mph5.1 kmh 29.53 in1000.0 mb 0.15 in3.8 mm 0.36 in9.1 mm 0.15 in3.8 mm
04:30 AM 62.6°F17.0°C 58.7°F14.8°C 87% 3.9 mph WNW6.3 kmh WNW 14.0 mph22.5 kmh 29.53 in1000.0 mb 0.29 in7.4 mm 0.56 in14.2 mm 0.29 in7.4 mm
04:45 AM 62.4°F16.9°C 59.1°F15.1°C 89% 3.2 mph W5.1 kmh W 8.6 mph13.8 kmh 29.53 in1000.0 mb 0.29 in7.4 mm 0.00 in0.0 mm 0.29 in7.4 mm
05:00 AM 62.2°F16.8°C 59.0°F15.0°C 89% 4.2 mph W6.8 kmh W 10.0 mph16.1 kmh 29.53 in1000.0 mb 0.29 in7.4 mm 0.00 in0.0 mm 0.34 in8.6 mm
05:15 AM 61.9°F16.6°C 58.9°F14.9°C 90% 4.3 mph WNW6.9 kmh WNW 11.8 mph19.0 kmh 29.56 in1001.0 mb 0.23 in5.8 mm 0.00 in0.0 mm 0.38 in9.7 mm
05:30 AM 61.2°F16.2°C 57.9°F14.4°C 89% 3.1 mph WNW5.0 kmh WNW 12.9 mph20.8 kmh 29.56 in1001.0 mb 0.09 in2.3 mm 0.00 in0.0 mm 0.38 in9.7 mm
05:45 AM 61.0°F16.1°C 58.0°F14.4°C 90% 1.9 mph W3.1 kmh W 8.9 mph14.3 kmh 29.56 in1001.0 mb 0.09 in2.3 mm 0.00 in0.0 mm 0.38 in9.7 mm
06:00 AM 61.0°F16.1°C 58.0°F14.4°C 90% 0.6 mph ENE1.0 kmh ENE 4.3 mph6.9 kmh 29.53 in1000.0 mb 0.09 in2.3 mm 0.00 in0.0 mm 0.44 in11.2 mm
06:15 AM 61.0°F16.1°C 58.0°F14.4°C 90% 0.4 mph SW0.6 kmh SW 4.3 mph6.9 kmh 29.53 in1000.0 mb 0.06 in1.5 mm 0.00 in0.0 mm 0.44 in11.2 mm
06:30 AM 61.2°F16.2°C 58.5°F14.7°C 91% 0.2 mph W0.3 kmh W 3.6 mph5.8 kmh 29.56 in1001.0 mb 0.06 in1.5 mm 0.00 in0.0 mm 0.44 in11.2 mm
06:45 AM 61.5°F16.4°C 58.9°F14.9°C 91% 0.1 mph WNW0.2 kmh WNW 1.8 mph2.9 kmh 29.53 in1000.0 mb 0.06 in1.5 mm 0.00 in0.0 mm 0.44 in11.2 mm
07:00 AM 61.7°F16.5°C 59.0°F15.0°C 91% Calm Calm -- 29.56 in1001.0 mb 0.00 in0.0 mm 0.00 in0.0 mm 0.44 in11.2 mm
07:15 AM 63.1°F17.3°C 60.5°F15.8°C 91% 0.1 mph SE0.2 kmh SE 1.4 mph2.3 kmh 29.53 in1000.0 mb 0.00 in0.0 mm 0.00 in0.0 mm 0.44 in11.2 mm
07:30 AM 63.5°F17.5°C 60.5°F15.8°C 90% Calm Calm -- 29.53 in1000.0 mb 0.00 in0.0 mm 0.00 in0.0 mm 0.44 in11.2 mm
07:45 AM 63.5°F17.5°C 60.2°F15.7°C 89% Calm Calm -- 29.56 in1001.0 mb 0.00 in0.0 mm 0.00 in0.0 mm 0.44 in11.2 mm
08:00 AM 63.7°F17.6°C 60.4°F15.8°C 89% Calm Calm 2.1 mph3.4 kmh 29.56 in1001.0 mb 0.00 in0.0 mm 0.00 in0.0 mm 0.44 in11.2 mm
08:15 AM 64.4°F18.0°C 61.1°F16.2°C 89% 1.3 mph WSW2.1 kmh WSW 9.3 mph15.0 kmh 29.59 in1002.0 mb 0.00 in0.0 mm 0.00 in0.0 mm 0.44 in11.2 mm
08:30 AM 64.6°F18.1°C 60.9°F16.1°C 88% 0.8 mph WSW1.3 kmh WSW 5.4 mph8.7 kmh 29.56 in1001.0 mb 0.00 in0.0 mm 0.00 in0.0 mm 0.44 in11.2 mm
08:45 AM 65.3°F18.5°C 61.7°F16.5°C 88% 1.4 mph WSW2.3 kmh WSW 6.1 mph9.8 kmh 29.56 in1001.0 mb 0.00 in0.0 mm 0.00 in0.0 mm 0.44 in11.2 mm
09:00 AM 66.2°F19.0°C 62.2°F16.8°C 87% 1.9 mph WSW3.1 kmh WSW 8.9 mph14.3 kmh 29.56 in1001.0 mb 0.00 in0.0 mm 0.00 in0.0 mm 0.44 in11.2 mm
09:15 AM 65.7°F18.7°C 61.0°F16.1°C 85% 2.9 mph WSW4.7 kmh WSW 10.0 mph16.1 kmh 29.56 in1001.0 mb 0.00 in0.0 mm 0.00 in0.0 mm 0.44 in11.2 mm
09:30 AM 66.6°F19.2°C 61.6°F16.4°C 84% 2.7 mph WNW4.3 kmh WNW 15.4 mph24.8 kmh 29.56 in1001.0 mb 0.00 in0.0 mm 0.00 in0.0 mm 0.44 in11.2 mm
09:45 AM 67.1°F19.5°C 61.4°F16.3°C 82% 3.3 mph W5.3 kmh W 9.7 mph15.6 kmh 29.56 in1001.0 mb 0.00 in0.0 mm 0.00 in0.0 mm 0.44 in11.2 mm
10:00 AM 66.7°F19.3°C 60.7°F15.9°C 81% 2.0 mph W3.2 kmh W 5.7 mph9.2 kmh 29.56 in1001.0 mb 0.00 in0.0 mm 0.00 in0.0 mm 0.44 in11.2 mm
10:15 AM 67.5°F19.7°C 60.7°F15.9°C 79% 4.0 mph WSW6.4 kmh WSW 11.1 mph17.9 kmh 29.56 in1001.0 mb 0.00 in0.0 mm 0.00 in0.0 mm 0.44 in11.2 mm
10:30 AM 66.6°F19.2°C 59.5°F15.3°C 78% 3.4 mph SW5.5 kmh SW 9.3 mph15.0 kmh 29.56 in1001.0 mb 0.00 in0.0 mm 0.00 in0.0 mm 0.44 in11.2 mm
10:45 AM 65.3°F18.5°C 58.6°F14.8°C 79% 4.1 mph SW6.6 kmh SW 10.0 mph16.1 kmh 29.59 in1002.0 mb 0.00 in0.0 mm 0.00 in0.0 mm 0.44 in11.2 mm
11:00 AM 65.3°F18.5°C 59.0°F15.0°C 80% 3.7 mph W6.0 kmh W 13.6 mph21.9 kmh 29.56 in1001.0 mb 0.00 in0.0 mm 0.00 in0.0 mm 0.44 in11.2 mm
11:15 AM 65.3°F18.5°C 59.0°F15.0°C 80% 4.0 mph SSW6.4 kmh SSW 12.2 mph19.6 kmh 29.56 in1001.0 mb 0.00 in0.0 mm 0.00 in0.0 mm 0.44 in11.2 mm
11:30 AM 65.3°F18.5°C 59.0°F15.0°C 80% 5.0 mph S8.0 kmh S 14.0 mph22.5 kmh 29.56 in1001.0 mb 0.00 in0.0 mm 0.00 in0.0 mm 0.44 in11.2 mm
11:45 AM 64.6°F18.1°C 57.9°F14.4°C 79% 3.6 mph WNW5.8 kmh WNW 10.0 mph16.1 kmh 29.56 in1001.0 mb 0.00 in0.0 mm 0.00 in0.0 mm 0.44 in11.2 mm
12:00 PM 65.5°F18.6°C 59.1°F15.1°C 80% 5.2 mph W8.4 kmh W 10.0 mph16.1 kmh 29.53 in1000.0 mb 0.00 in0.0 mm 0.00 in0.0 mm 0.44 in11.2 mm
12:15 PM 66.6°F19.2°C 59.1°F15.1°C 77% 6.1 mph W9.8 kmh W 15.7 mph25.3 kmh 29.56 in1001.0 mb 0.00 in0.0 mm 0.00 in0.0 mm 0.44 in11.2 mm
12:30 PM 67.1°F19.5°C 58.9°F14.9°C 75% 6.1 mph W9.8 kmh W 14.0 mph22.5 kmh 29.56 in1001.0 mb 0.00 in0.0 mm 0.00 in0.0 mm 0.44 in11.2 mm
12:45 PM 67.8°F19.9°C 59.2°F15.1°C 74% 4.1 mph W6.6 kmh W 11.5 mph18.5 kmh 29.56 in1001.0 mb 0.00 in0.0 mm 0.00 in0.0 mm 0.44 in11.2 mm
01:00 PM 68.2°F20.1°C 58.0°F14.4°C 70% 4.4 mph W7.1 kmh W 10.4 mph16.7 kmh 29.56 in1001.0 mb 0.00 in0.0 mm 0.00 in0.0 mm 0.44 in11.2 mm
01:15 PM 66.7°F19.3°C 56.2°F13.4°C 69% 4.6 mph W7.4 kmh W 14.7 mph23.7 kmh 29.56 in1001.0 mb 0.00 in0.0 mm 0.00 in0.0 mm 0.44 in11.2 mm
01:30 PM 63.0°F17.2°C 54.2°F12.3°C 73% 6.9 mph W11.1 kmh W 20.0 mph32.2 kmh 29.56 in1001.0 mb 0.05 in1.3 mm 0.20 in5.1 mm 0.48 in12.2 mm
01:45 PM 61.7°F16.5°C 54.4°F12.4°C 77% 3.2 mph WSW5.1 kmh WSW 9.3 mph15.0 kmh 29.56 in1001.0 mb 0.05 in1.3 mm 0.00 in0.0 mm 0.48 in12.2 mm
02:00 PM 61.3°F16.3°C 54.8°F12.7°C 79% 1.2 mph SW1.9 kmh SW 5.0 mph8.0 kmh 29.53 in1000.0 mb 0.09 in2.3 mm 0.05 in1.3 mm 0.53 in13.5 mm
02:15 PM 61.0°F16.1°C 55.1°F12.8°C 81% 1.6 mph SSW2.6 kmh SSW 6.8 mph10.9 kmh 29.53 in1000.0 mb 0.14 in3.6 mm 0.20 in5.1 mm 0.57 in14.5 mm
02:30 PM 61.0°F16.1°C 55.8°F13.2°C 83% 0.5 mph WSW0.8 kmh WSW 6.8 mph10.9 kmh 29.56 in1001.0 mb 0.09 in2.3 mm 0.00 in0.0 mm 0.57 in14.5 mm
02:45 PM 61.3°F16.3°C 56.5°F13.6°C 84% 0.8 mph SSW1.3 kmh SSW 4.3 mph6.9 kmh 29.56 in1001.0 mb 0.09 in2.3 mm 0.00 in0.0 mm 0.57 in14.5 mm
03:00 PM 62.4°F16.9°C 57.8°F14.3°C 85% 1.7 mph SSW2.7 kmh SSW 6.4 mph10.3 kmh 29.56 in1001.0 mb 0.05 in1.3 mm 0.00 in0.0 mm 0.57 in14.5 mm
03:15 PM 63.0°F17.2°C 58.0°F14.4°C 84% 1.9 mph S3.1 kmh S 9.7 mph15.6 kmh 29.56 in1001.0 mb 0.00 in0.0 mm 0.00 in0.0 mm 0.57 in14.5 mm
03:30 PM 63.1°F17.3°C 57.9°F14.4°C 83% 2.7 mph S4.3 kmh S 8.9 mph14.3 kmh 29.56 in1001.0 mb 0.00 in0.0 mm 0.00 in0.0 mm 0.57 in14.5 mm
03:45 PM 63.9°F17.7°C 58.3°F14.6°C 82% 4.5 mph W7.2 kmh W 12.5 mph20.1 kmh 29.56 in1001.0 mb 0.00 in0.0 mm 0.00 in0.0 mm 0.57 in14.5 mm
04:00 PM 63.5°F17.5°C 57.6°F14.2°C 81% 4.0 mph WSW6.4 kmh WSW 10.4 mph16.7 kmh 29.56 in1001.0 mb 0.00 in0.0 mm 0.00 in0.0 mm 0.57 in14.5 mm
04:15 PM 63.1°F17.3°C 56.2°F13.4°C 78% 5.8 mph W9.3 kmh W 11.8 mph19.0 kmh 29.56 in1001.0 mb 0.00 in0.0 mm 0.00 in0.0 mm 0.57 in14.5 mm
04:30 PM 63.0°F17.2°C 54.9°F12.7°C 75% 4.3 mph W6.9 kmh W 11.8 mph19.0 kmh 29.56 in1001.0 mb 0.00 in0.0 mm 0.00 in0.0 mm 0.57 in14.5 mm
04:45 PM 62.1°F16.7°C 54.0°F12.2°C 75% 4.9 mph W7.9 kmh W 12.2 mph19.6 kmh 29.56 in1001.0 mb 0.00 in0.0 mm 0.00 in0.0 mm 0.57 in14.5 mm
05:00 PM 62.2°F16.8°C 53.8°F12.1°C 74% 3.2 mph W5.1 kmh W 9.3 mph15.0 kmh 29.56 in1001.0 mb 0.00 in0.0 mm 0.00 in0.0 mm 0.57 in14.5 mm
05:15 PM 62.8°F17.1°C 54.0°F12.2°C 73% 4.0 mph W6.4 kmh W 10.4 mph16.7 kmh 29.56 in1001.0 mb 0.00 in0.0 mm 0.00 in0.0 mm 0.57 in14.5 mm
05:30 PM 61.3°F16.3°C 52.2°F11.2°C 72% 4.8 mph WSW7.7 kmh WSW 12.2 mph19.6 kmh 29.59 in1002.0 mb 0.00 in0.0 mm 0.00 in0.0 mm 0.57 in14.5 mm
05:45 PM 60.3°F15.7°C 51.6°F10.9°C 73% 4.2 mph W6.8 kmh W 10.0 mph16.1 kmh 29.56 in1001.0 mb 0.00 in0.0 mm 0.00 in0.0 mm 0.57 in14.5 mm
06:00 PM 58.6°F14.8°C 49.6°F9.8°C 72% 5.7 mph W9.2 kmh W 15.4 mph24.8 kmh 29.56 in1001.0 mb 0.00 in0.0 mm 0.00 in0.0 mm 0.57 in14.5 mm
06:15 PM 56.8°F13.8°C 49.0°F9.4°C 75% 1.4 mph W2.3 kmh W 6.1 mph9.8 kmh 29.56 in1001.0 mb 0.00 in0.0 mm 0.00 in0.0 mm 0.57 in14.5 mm
06:30 PM 56.3°F13.5°C 49.5°F9.7°C 78% 1.2 mph W1.9 kmh W 6.4 mph10.3 kmh 29.56 in1001.0 mb 0.00 in0.0 mm 0.00 in0.0 mm 0.57 in14.5 mm
06:45 PM 56.7°F13.7°C 50.6°F10.3°C 80% 2.4 mph WSW3.9 kmh WSW 10.0 mph16.1 kmh 29.56 in1001.0 mb 0.05 in1.3 mm 0.20 in5.1 mm 0.62 in15.7 mm
07:00 PM 56.3°F13.5°C 50.5°F10.3°C 81% 0.3 mph S0.5 kmh S 4.3 mph6.9 kmh 29.56 in1001.0 mb 0.05 in1.3 mm 0.00 in0.0 mm 0.62 in15.7 mm
07:15 PM 55.8°F13.2°C 50.3°F10.2°C 82% 2.6 mph S4.2 kmh S 8.6 mph13.8 kmh 29.56 in1001.0 mb 0.05 in1.3 mm 0.00 in0.0 mm 0.62 in15.7 mm
07:30 PM 55.6°F13.1°C 50.5°F10.3°C 83% 2.6 mph S4.2 kmh S 8.6 mph13.8 kmh 29.53 in1000.0 mb 0.05 in1.3 mm 0.00 in0.0 mm 0.62 in15.7 mm
07:45 PM 55.6°F13.1°C 50.5°F10.3°C 83% 3.2 mph S5.1 kmh S 10.0 mph16.1 kmh 29.53 in1000.0 mb 0.06 in1.5 mm 0.04 in1.0 mm 0.68 in17.3 mm
08:00 PM 55.8°F13.2°C 51.3°F10.7°C 85% 3.2 mph S5.1 kmh S 8.9 mph14.3 kmh 29.56 in1001.0 mb 0.06 in1.5 mm 0.00 in0.0 mm 0.68 in17.3 mm
08:15 PM 55.8°F13.2°C 51.3°F10.7°C 85% 1.1 mph SSW1.8 kmh SSW 5.4 mph8.7 kmh 29.56 in1001.0 mb 0.06 in1.5 mm 0.00 in0.0 mm 0.68 in17.3 mm
08:30 PM 55.2°F12.9°C 50.8°F10.4°C 85% 0.2 mph W0.3 kmh W 1.8 mph2.9 kmh 29.56 in1001.0 mb 0.06 in1.5 mm 0.00 in0.0 mm 0.68 in17.3 mm
08:45 PM 54.9°F12.7°C 50.4°F10.2°C 85% 1.2 mph WNW1.9 kmh WNW 4.3 mph6.9 kmh 29.56 in1001.0 mb 0.00 in0.0 mm 0.00 in0.0 mm 0.68 in17.3 mm
09:00 PM 54.5°F12.5°C 49.8°F9.9°C 84% 1.6 mph SW2.6 kmh SW 5.7 mph9.2 kmh 29.56 in1001.0 mb 0.00 in0.0 mm 0.00 in0.0 mm 0.68 in17.3 mm
09:15 PM 54.1°F12.3°C 49.4°F9.7°C 84% 0.9 mph WSW1.4 kmh WSW 4.7 mph7.6 kmh 29.56 in1001.0 mb 0.00 in0.0 mm 0.00 in0.0 mm 0.68 in17.3 mm
09:30 PM 54.3°F12.4°C 49.6°F9.8°C 84% 2.0 mph SW3.2 kmh SW 12.9 mph20.8 kmh 29.59 in1002.0 mb 0.00 in0.0 mm 0.00 in0.0 mm 0.68 in17.3 mm
09:45 PM 54.7°F12.6°C 50.3°F10.2°C 85% 2.0 mph WSW3.2 kmh WSW 9.7 mph15.6 kmh 29.59 in1002.0 mb 0.00 in0.0 mm 0.00 in0.0 mm 0.68 in17.3 mm
10:00 PM 54.9°F12.7°C 50.1°F10.1°C 84% 1.9 mph WSW3.1 kmh WSW 7.9 mph12.7 kmh 29.59 in1002.0 mb 0.00 in0.0 mm 0.00 in0.0 mm 0.68 in17.3 mm
10:15 PM 55.0°F12.8°C 50.3°F10.2°C 84% 3.3 mph W5.3 kmh W 9.7 mph15.6 kmh 29.59 in1002.0 mb 0.00 in0.0 mm 0.00 in0.0 mm 0.68 in17.3 mm
10:30 PM 55.0°F12.8°C 50.0°F10.0°C 83% 4.0 mph W6.4 kmh W 12.9 mph20.8 kmh 29.59 in1002.0 mb 0.00 in0.0 mm 0.00 in0.0 mm 0.68 in17.3 mm
10:45 PM 55.4°F13.0°C 50.3°F10.2°C 83% 3.8 mph W6.1 kmh W 11.5 mph18.5 kmh 29.59 in1002.0 mb 0.00 in0.0 mm 0.00 in0.0 mm 0.68 in17.3 mm
11:00 PM 55.6°F13.1°C 50.2°F10.1°C 82% 2.1 mph WSW3.4 kmh WSW 6.1 mph9.8 kmh 29.59 in1002.0 mb 0.00 in0.0 mm 0.00 in0.0 mm 0.49 in12.4 mm
11:15 PM 55.6°F13.1°C 50.2°F10.1°C 82% 2.9 mph WSW4.7 kmh WSW 8.9 mph14.3 kmh 29.59 in1002.0 mb 0.00 in0.0 mm 0.00 in0.0 mm 0.49 in12.4 mm
11:30 PM 55.8°F13.2°C 49.7°F9.8°C 80% 2.4 mph W3.9 kmh W 8.6 mph13.8 kmh 29.56 in1001.0 mb 0.00 in0.0 mm 0.00 in0.0 mm 0.49 in12.4 mm
11:45 PM 55.9°F13.3°C 49.9°F9.9°C 80% 2.2 mph WSW3.5 kmh WSW 7.5 mph12.1 kmh 29.56 in1001.0 mb 0.00 in0.0 mm 0.00 in0.0 mm 0.49 in12.4 mm